ADDS METAR Data INFO
IDs: Format: Raw Decoded Include TAF

Data at: 1542 UTC 24 Sep 2017

KLNC 241535Z AUTO 23003KT 10SM SCT018 BKN028 BKN035 26/22 A2997 RMK AO2 T02590215
KLNC 241515Z AUTO 20004KT 10SM SCT015 BKN021 BKN028 26/21 A2997 RMK AO2 T02570212
KLNC 241455Z AUTO 16007KT 10SM BKN015 25/21 A2997 RMK AO2 T02530213
KLNC 241435Z AUTO 21005KT 10SM SCT009 25/21 A2996 RMK AO2 T02500212
KLNC 241415Z AUTO 18005KT 10SM CLR 24/21 A2995 RMK AO2 T02380209
KLNC 241355Z AUTO 13004KT 10SM CLR 23/20 A2994 RMK AO2 T02290203
KLNC 241335Z AUTO 15003KT 10SM CLR 22/20 A2993 RMK AO2 T02220198
KLNC 241315Z AUTO 12003KT 10SM CLR 22/20 A2993 RMK AO2 T02170195
KLNC 241255Z AUTO 00000KT 10SM CLR 21/19 A2992 RMK AO2 T02080186
KLNC 241235Z AUTO 00000KT 7SM CLR 21/19 A2992 RMK AO2 T02050186
KLNC 241215Z AUTO 00000KT 10SM CLR 20/18 A2992 RMK AO2 T02020182
KLNC 241155Z AUTO 00000KT 10SM CLR 21/18 A2991 RMK AO2 T02050182 10246 20202
KLNC 241135Z AUTO 11003KT 10SM CLR 21/18 A2991 RMK AO2 T02050181
KLNC 241115Z AUTO 00000KT 10SM CLR 21/18 A2991 RMK AO2 T02050180
KLNC 241055Z AUTO 00000KT 10SM CLR 21/18 A2991 RMK AO2 T02080182
KLNC 241035Z AUTO 00000KT 10SM CLR 21/18 A2991 RMK AO2 T02100182
KLNC 241015Z AUTO 00000KT 10SM CLR 21/18 A2991 RMK AO2 T02130183
KLNC 240955Z AUTO 00000KT 10SM CLR 21/18 A2991 RMK AO2 T02130183
KLNC 240935Z AUTO 00000KT 10SM CLR 22/19 A2991 RMK AO2 T02160190
KLNC 240915Z AUTO 00000KT 10SM CLR 22/19 A2991 RMK AO2 T02170188
KLNC 240855Z AUTO 00000KT 10SM CLR 22/18 A2991 RMK AO2 T02170183
KLNC 240835Z AUTO 00000KT 10SM CLR 23/20 A2991 RMK AO2 T02250195
KLNC 240815Z AUTO 00000KT 10SM CLR 22/19 A2991 RMK AO2 T02210188
KLNC 240755Z AUTO 00000KT 10SM CLR 23/19 A2991 RMK AO2 T02290187
KLNC 240735Z AUTO 00000KT 10SM CLR 23/19 A2991 RMK AO2 T02320190
KLNC 240715Z AUTO 00000KT 10SM CLR 24/19 A2991 RMK AO2 T02350191
KLNC 240655Z AUTO 00000KT 10SM CLR 24/19 A2990 RMK AO2 T02380190
KLNC 240635Z AUTO 14003KT 10SM CLR 24/19 A2990 RMK AO2 T02410188
KLNC 240615Z AUTO 15004KT 10SM CLR 24/19 A2990 RMK AO2 T02420191
KLNC 240555Z AUTO 14004KT 10SM CLR 25/19 A2990 RMK AO2 T02460190 10317 20243 403480191
KLNC 240535Z AUTO 13003KT 10SM CLR 24/19 A2990 RMK AO2 T02430185
KLNC 240515Z AUTO 15003KT 10SM CLR 25/19 A2989 RMK AO2 T02470187
KLNC 240455Z AUTO 15005KT 10SM CLR 25/19 A2990 RMK AO2 T02500187
KLNC 240435Z AUTO 14004KT 10SM CLR 25/18 A2990 RMK AO2 T02500180
KLNC 240415Z AUTO 15004KT 10SM CLR 25/19 A2990 RMK AO2 T02530185
KLNC 240355Z AUTO 15003KT 10SM CLR 26/19 A2989 RMK AO2 T02580185
KLNC 240335Z AUTO 15005KT 10SM CLR 26/18 A2989 RMK AO2 T02630184
KLNC 240315Z AUTO 15004KT 10SM CLR 27/18 A2989 RMK AO2 T02660182
KLNC 240255Z AUTO 14005KT 10SM CLR 27/18 A2989 RMK AO2 T02730178
KLNC 240235Z AUTO 14005KT 10SM CLR 28/18 A2989 RMK AO2 T02770177
KLNC 240215Z AUTO 14005KT 10SM CLR 29/18 A2989 RMK AO2 T02850177
KLNC 240155Z AUTO 13006KT 10SM CLR 29/18 A2989 RMK AO2 T02890176
KLNC 240135Z AUTO 13005KT 10SM CLR 29/17 A2988 RMK AO2 T02900173
KLNC 240115Z AUTO 12004KT 10SM CLR 30/17 A2987 RMK AO2 T02950172
KLNC 240055Z AUTO 12005KT 10SM CLR 30/17 A2987 RMK AO2 T02990172
KLNC 240035Z AUTO 12005KT 10SM CLR 31/17 A2987 RMK AO2 T03050173
KLNC 240015Z AUTO 12005KT 10SM CLR 31/18 A2987 RMK AO2 T03120175
KLNC 232355Z AUTO 13008KT 10SM CLR 32/18 A2987 RMK AO2 T03170175 10348 20317
KLNC 232335Z AUTO 13010G14KT 10SM SCT100 BKN120 32/18 A2986 RMK AO2 T03230175
KLNC 232315Z AUTO 13007KT 10SM BKN100 33/18 A2987 RMK AO2 T03290175
KLNC 232255Z AUTO 11009KT 10SM BKN090 33/18 A2987 RMK AO2 T03250175
KLNC 232235Z AUTO 11010KT 10SM SCT100 BKN120 33/17 A2987 RMK AO2 T03250172
KLNC 232215Z AUTO 10011KT 10SM SCT070 SCT090 BKN120 33/17 A2987 RMK AO2 T03310174
KLNC 232155Z AUTO 10011G16KT 10SM BKN070 BKN090 BKN110 34/17 A2987 RMK AO2 T03430173
KLNC 232135Z AUTO 11009G15KT 10SM SCT070 SCT080 BKN110 34/17 A2988 RMK AO2 T03420169
KLNC 232115Z AUTO 14010G20KT 10SM SCT065 BKN110 35/16 A2988 RMK AO2 T03470164
KLNC 232055Z AUTO 14010KT 10SM SCT065 SCT080 34/17 A2989 RMK AO2 T03410169
KLNC 232035Z AUTO 16007G17KT 10SM SCT065 SCT080 34/17 A2989 RMK AO2 T03400173
KLNC 232015Z AUTO 12009G15KT 10SM SCT065 SCT080 SCT090 34/18 A2990 RMK AO2 T03410175
KLNC 231955Z AUTO 14011KT 10SM SCT065 SCT080 SCT090 33/17 A2991 RMK AO2 T03310172
KLNC 231935Z AUTO 17009G16KT 10SM SCT055 SCT075 33/17 A2992 RMK AO2 T03300172
KLNC 231915Z AUTO 13006G16KT 10SM SCT055 BKN075 BKN085 32/18 A2992 RMK AO2 T03230179
KLNC 231855Z AUTO 13012G18KT 10SM SCT055 SCT070 SCT085 32/18 A2993 RMK AO2 T03230180
KLNC 231835Z AUTO 17008KT 10SM SCT049 SCT070 33/19 A2994 RMK AO2 T03280188
KLNC 231815Z AUTO 13009KT 10SM SCT049 33/19 A2995 RMK AO2 T03250189
KLNC 231755Z AUTO 15007G14KT 10SM SCT042 SCT048 SCT055 32/20 A2995 RMK AO2 T03220196 10322 20191
KLNC 231735Z AUTO 13011G14KT 10SM SCT041 SCT047 SCT055 32/20 A2996 RMK AO2 T03190197
KLNC 231715Z AUTO 16009KT 120V180 10SM SCT038 SCT045 31/20 A2997 RMK AO2 T03050199
KLNC 231655Z AUTO 17009G15KT 130V190 10SM SCT038 SCT047 31/20 A2998 RMK AO2 T03110203
KLNC 231635Z AUTO 16011G14KT 10SM SCT034 SCT040 BKN047 30/21 A2998 RMK AO2 T03040206
KLNC 231615Z AUTO 16008KT 10SM SCT031 SCT037 SCT044 30/21 A2998 RMK AO2 T02980208
KLNC 231555Z AUTO 14007KT 10SM CLR 29/21 A2999 RMK AO2 T02920210
KLNC 231535Z AUTO 15006KT 10SM CLR 28/21 A2998 RMK AO2 T02820210
KLNC 231515Z AUTO 15005KT 10SM CLR 28/21 A2998 RMK AO2 T02780208
KLNC 231455Z AUTO 20004KT 10SM CLR 27/21 A2998 RMK AO2 T02660209
KLNC 231435Z AUTO 15003KT 10SM CLR 26/21 A2998 RMK AO2 T02570208
KLNC 231415Z AUTO 00000KT 10SM CLR 24/20 A2997 RMK AO2 T02430203
KLNC 231355Z AUTO 00000KT 10SM CLR 24/20 A2997 RMK AO2 T02350198
KLNC 231335Z AUTO 00000KT 10SM CLR 22/19 A2997 RMK AO2 T02240190
KLNC 231315Z AUTO 00000KT 10SM CLR 21/19 A2996 RMK AO2 T02100186
KLNC 231255Z AUTO 00000KT 10SM CLR 20/18 A2996 RMK AO2 T01970179
KLNC 231235Z AUTO 00000KT 10SM CLR 19/17 A2996 RMK AO2 T01940170
KLNC 231215Z AUTO 00000KT 10SM CLR 20/17 A2996 RMK AO2 T01950172
KLNC 231155Z AUTO 00000KT 10SM CLR 19/17 A2996 RMK AO2 T01930166 10233 20192
KLNC 231135Z AUTO 00000KT 10SM CLR 20/17 A2995 RMK AO2 T01960171
KLNC 231115Z AUTO 00000KT 10SM CLR 20/19 A2995 RMK AO2 T02020186
KLNC 231055Z AUTO 00000KT 10SM CLR 21/19 A2995 RMK AO2 T02050185
KLNC 231035Z AUTO 00000KT 10SM CLR 21/18 A2995 RMK AO2 T02050180
KLNC 231015Z AUTO 00000KT 10SM CLR 20/17 A2995 RMK AO2 T02040173
KLNC 230955Z AUTO 00000KT 10SM CLR 21/18 A2995 RMK AO2 T02090180
KLNC 230935Z AUTO 00000KT 10SM CLR 21/18 A2995 RMK AO2 T02100182
KLNC 230915Z AUTO 00000KT 10SM CLR 21/18 A2995 RMK AO2 T02120184
KLNC 230855Z AUTO 00000KT 10SM CLR 21/18 A2995 RMK AO2 T02140179
KLNC 230835Z AUTO 00000KT 10SM CLR 21/19 A2994 RMK AO2 T02120186
KLNC 230815Z AUTO 00000KT 10SM CLR 22/19 A2994 RMK AO2 T02150187
KLNC 230755Z AUTO 00000KT 10SM CLR 22/18 A2994 RMK AO2 T02150179
KLNC 230735Z AUTO 00000KT 10SM CLR 22/18 A2995 RMK AO2 T02170180
KLNC 230715Z AUTO 00000KT 10SM CLR 22/19 A2995 RMK AO2 T02220185
KLNC 230655Z AUTO 00000KT 10SM CLR 23/18 A2995 RMK AO2 T02250184
KLNC 230635Z AUTO 00000KT 10SM CLR 23/18 A2995 RMK AO2 T02250182
KLNC 230615Z AUTO 00000KT 10SM CLR 23/18 A2995 RMK AO2 T02290183
KLNC 230535Z AUTO 00000KT 10SM CLR 24/19 A2995 RMK AO2 T02350185
KLNC 230515Z AUTO 00000KT 10SM CLR 24/19 A2995 RMK AO2 T02370186
KLNC 230455Z AUTO 00000KT 10SM CLR 24/19 A2995 RMK AO2 T02420185
KLNC 230435Z AUTO 00000KT 10SM CLR 25/18 A2995 RMK AO2 T02450183
KLNC 230415Z AUTO 00000KT 10SM CLR 25/18 A2994 RMK AO2 T02470180
KLNC 230355Z AUTO 14003KT 10SM CLR 25/18 A2994 RMK AO2 T02540180